weather.gov     
National Weather Service

Terminal Aerodrome Forecast
NWS Homepage
This page is being discontinued on March 12, 2014.
The same data is available at this site. Please update your bookmarks.
Thank you, and we apologize for the inconvenience.
Please send an email to SR-SRH.Webmaster@noaa.gov with any concerns.


Current Version
Previous Version:    01  02  03  04  05  06  07  08  09  10  11  12  13  14  15  16  17  18  19  20  21  22  23  24  25  26  27  
[Printable]
947
FTUS44 KMRX 011720
TAFCHA
TAF
KCHA 011720Z 0118/0218 16008KT 5SM -RA BR BKN025
     FM012000 17012KT 4SM -RA OVC015
     FM020000 18012KT 2SM RA OVC007
     FM020500 26012KT 5SM -RA SCT007 OVC020
     FM020900 29010KT P6SM -RA BKN025
     FM021200 31013G23KT P6SM BKN025=


947
FTUS44 KMRX 011720
TAFCHA
TAF
KCHA 011720Z 0118/0218 16008KT 5SM -RA BR BKN025
     FM012000 17012KT 4SM -RA OVC015
     FM020000 18012KT 2SM RA OVC007
     FM020500 26012KT 5SM -RA SCT007 OVC020
     FM020900 29010KT P6SM -RA BKN025
     FM021200 31013G23KT P6SM BKN025=




U.S. Dept. of Commerce
NOAA National Weather Service
1325 East West Highway
Silver Spring, MD 20910
E-mail: w-nws.webmaster@noaa.gov
Page last modified: May 16, 2007
NATIONAL WEATHER SERVICE: for Safety, for Work, for Fun - FOR LIFE